aviador You're here:

ETAD Decoded Metar

SPANGDAHLEM in GERMANY
Report Time2017-12-16 18:25:00
UTC Time2017-12-16 18:46:39
Flight Rules mvfr MVFR
Wind240° at 06 kt
W.Decomp.*RWY 23: 5.9 kt HW 0.9 kt RCW
W.Rank240° ranks 3
Current wind is below 240° avg. (7.5)
Visibility9999 m
Phenomena:N/A
Clouds:Broken 014 Hf
Overcast 020 Hf
Expected CloudBase > 400 ft AGL from Temp-Dew spread
Ceiling1,400 ft
Temp01°C (ISA -12)
Dew Point00°C (93% RH)
AAT-3.1°C
QNH1015 hPa
Density Alt-194 ft
Elevation1,198 ft
Report Wrong Elevation
Raw Report
ETAD 161825Z AUTO 24006KT 9999 BKN014 OVC020 01/00 A2998 RMK AO2
SLP161 TSNO $=

Extra information for ETAD:More info

Metar Taf Metar & Taf Last 4 Metars F.Rules Stats Wind Profile Meteogram Temp Stats Airport Information Weather charts Add Link Nearby VenuesMetar ALERT Operation Metar Decoded Social comments